sensor_id;sensor_type;location;lat;lon;timestamp;temperature;humidity
11511;DHT22;5812;48.864;9.190;2022-07-10T00:01:56;16.80;44.80
11511;DHT22;5812;48.864;9.190;2022-07-10T00:04:22;16.80;40.60
11511;DHT22;5812;48.864;9.190;2022-07-10T00:06:48;16.90;32.70
11511;DHT22;5812;48.864;9.190;2022-07-10T00:09:14;17.00;34.60
11511;DHT22;5812;48.864;9.190;2022-07-10T00:11:40;17.00;21.20
11511;DHT22;5812;48.864;9.190;2022-07-10T00:14:06;16.90;33.50
11511;DHT22;5812;48.864;9.190;2022-07-10T00:16:31;16.90;39.10
11511;DHT22;5812;48.864;9.190;2022-07-10T00:18:57;16.70;38.80
11511;DHT22;5812;48.864;9.190;2022-07-10T00:21:23;16.80;41.50
11511;DHT22;5812;48.864;9.190;2022-07-10T00:23:48;16.70;54.20
11511;DHT22;5812;48.864;9.190;2022-07-10T00:26:14;16.80;51.30
11511;DHT22;5812;48.864;9.190;2022-07-10T00:28:39;16.80;44.00
11511;DHT22;5812;48.864;9.190;2022-07-10T00:31:05;16.80;53.30
11511;DHT22;5812;48.864;9.190;2022-07-10T00:33:31;16.80;46.80
11511;DHT22;5812;48.864;9.190;2022-07-10T00:35:58;16.90;28.20
11511;DHT22;5812;48.864;9.190;2022-07-10T00:38:24;16.90;21.30
11511;DHT22;5812;48.864;9.190;2022-07-10T00:40:50;17.00;15.00
11511;DHT22;5812;48.864;9.190;2022-07-10T00:43:15;16.90;10.60
11511;DHT22;5812;48.864;9.190;2022-07-10T00:45:41;16.90;15.70
11511;DHT22;5812;48.864;9.190;2022-07-10T00:48:07;16.90;10.50
11511;DHT22;5812;48.864;9.190;2022-07-10T00:50:34;16.90;10.70
11511;DHT22;5812;48.864;9.190;2022-07-10T00:53:00;16.90;2.00
11511;DHT22;5812;48.864;9.190;2022-07-10T00:55:28;16.70;26.50
11511;DHT22;5812;48.864;9.190;2022-07-10T00:57:54;16.60;33.50
11511;DHT22;5812;48.864;9.190;2022-07-10T01:00:20;16.60;34.30
11511;DHT22;5812;48.864;9.190;2022-07-10T01:02:47;16.60;33.50
11511;DHT22;5812;48.864;9.190;2022-07-10T01:05:13;16.60;33.50
11511;DHT22;5812;48.864;9.190;2022-07-10T01:07:39;16.50;34.10
11511;DHT22;5812;48.864;9.190;2022-07-10T01:10:04;16.40;52.00
11511;DHT22;5812;48.864;9.190;2022-07-10T01:12:30;16.30;61.30
11511;DHT22;5812;48.864;9.190;2022-07-10T01:14:56;16.40;61.40
11511;DHT22;5812;48.864;9.190;2022-07-10T01:17:24;16.30;61.80
11511;DHT22;5812;48.864;9.190;2022-07-10T01:19:49;16.40;60.50
11511;DHT22;5812;48.864;9.190;2022-07-10T01:22:15;16.40;59.90
11511;DHT22;5812;48.864;9.190;2022-07-10T01:24:41;16.40;59.90
11511;DHT22;5812;48.864;9.190;2022-07-10T01:27:07;16.50;42.10
11511;DHT22;5812;48.864;9.190;2022-07-10T01:29:34;16.60;28.60
11511;DHT22;5812;48.864;9.190;2022-07-10T01:32:00;16.60;23.60
11511;DHT22;5812;48.864;9.190;2022-07-10T01:34:27;16.60;17.80
11511;DHT22;5812;48.864;9.190;2022-07-10T01:36:53;16.50;18.10
11511;DHT22;5812;48.864;9.190;2022-07-10T01:39:18;16.40;21.80
11511;DHT22;5812;48.864;9.190;2022-07-10T01:41:44;16.40;27.20
11511;DHT22;5812;48.864;9.190;2022-07-10T01:44:10;16.30;42.70
11511;DHT22;5812;48.864;9.190;2022-07-10T01:46:42;16.20;43.70
11511;DHT22;5812;48.864;9.190;2022-07-10T01:49:07;16.20;38.20
11511;DHT22;5812;48.864;9.190;2022-07-10T01:51:33;16.10;55.20
11511;DHT22;5812;48.864;9.190;2022-07-10T01:53:58;16.00;72.20
11511;DHT22;5812;48.864;9.190;2022-07-10T01:56:24;16.00;71.80
11511;DHT22;5812;48.864;9.190;2022-07-10T01:58:50;16.00;68.40
11511;DHT22;5812;48.864;9.190;2022-07-10T02:01:15;16.00;68.10
11511;DHT22;5812;48.864;9.190;2022-07-10T02:03:41;15.90;73.20
11511;DHT22;5812;48.864;9.190;2022-07-10T02:06:25;16.00;62.00
11511;DHT22;5812;48.864;9.190;2022-07-10T02:08:51;15.90;64.80
11511;DHT22;5812;48.864;9.190;2022-07-10T02:11:16;15.80;74.70
11511;DHT22;5812;48.864;9.190;2022-07-10T02:13:42;15.80;81.30
11511;DHT22;5812;48.864;9.190;2022-07-10T02:16:08;15.80;82.30
11511;DHT22;5812;48.864;9.190;2022-07-10T02:18:33;15.80;82.40
11511;DHT22;5812;48.864;9.190;2022-07-10T02:20:59;16.40;75.00
11511;DHT22;5812;48.864;9.190;2022-07-10T02:23:25;16.00;77.20
11511;DHT22;5812;48.864;9.190;2022-07-10T02:25:50;16.00;64.60
11511;DHT22;5812;48.864;9.190;2022-07-10T02:28:16;16.00;55.70
11511;DHT22;5812;48.864;9.190;2022-07-10T02:30:42;16.00;66.50
11511;DHT22;5812;48.864;9.190;2022-07-10T02:33:08;16.10;62.10
11511;DHT22;5812;48.864;9.190;2022-07-10T02:35:33;16.00;61.00
11511;DHT22;5812;48.864;9.190;2022-07-10T02:37:59;16.00;62.30
11511;DHT22;5812;48.864;9.190;2022-07-10T02:40:24;16.10;61.20
11511;DHT22;5812;48.864;9.190;2022-07-10T02:42:50;16.00;54.20
11511;DHT22;5812;48.864;9.190;2022-07-10T02:45:16;16.00;58.20
11511;DHT22;5812;48.864;9.190;2022-07-10T02:47:41;16.00;61.20
11511;DHT22;5812;48.864;9.190;2022-07-10T02:50:07;16.00;65.30
11511;DHT22;5812;48.864;9.190;2022-07-10T02:52:33;15.90;67.50
11511;DHT22;5812;48.864;9.190;2022-07-10T02:54:59;15.80;75.80
11511;DHT22;5812;48.864;9.190;2022-07-10T02:57:25;15.80;87.00
11511;DHT22;5812;48.864;9.190;2022-07-10T02:59:51;15.80;78.10
11511;DHT22;5812;48.864;9.190;2022-07-10T03:02:16;15.90;71.40
11511;DHT22;5812;48.864;9.190;2022-07-10T03:04:42;15.70;86.60
11511;DHT22;5812;48.864;9.190;2022-07-10T03:07:07;15.70;89.20
11511;DHT22;5812;48.864;9.190;2022-07-10T03:09:33;15.70;88.60
11511;DHT22;5812;48.864;9.190;2022-07-10T03:11:59;15.70;81.30
11511;DHT22;5812;48.864;9.190;2022-07-10T03:14:25;15.70;84.20
11511;DHT22;5812;48.864;9.190;2022-07-10T03:16:51;15.60;85.40
11511;DHT22;5812;48.864;9.190;2022-07-10T03:19:16;15.60;83.50
11511;DHT22;5812;48.864;9.190;2022-07-10T03:21:42;15.60;85.90
11511;DHT22;5812;48.864;9.190;2022-07-10T03:24:08;15.60;83.60
11511;DHT22;5812;48.864;9.190;2022-07-10T03:26:33;15.50;89.00
11511;DHT22;5812;48.864;9.190;2022-07-10T03:28:59;15.50;85.60
11511;DHT22;5812;48.864;9.190;2022-07-10T03:31:26;15.40;85.00
11511;DHT22;5812;48.864;9.190;2022-07-10T03:33:51;15.50;84.40
11511;DHT22;5812;48.864;9.190;2022-07-10T03:36:18;15.50;89.20
11511;DHT22;5812;48.864;9.190;2022-07-10T03:38:44;15.30;97.90
11511;DHT22;5812;48.864;9.190;2022-07-10T03:41:11;15.50;88.50
11511;DHT22;5812;48.864;9.190;2022-07-10T03:43:36;15.50;90.20
11511;DHT22;5812;48.864;9.190;2022-07-10T03:46:02;15.50;90.20
11511;DHT22;5812;48.864;9.190;2022-07-10T03:48:28;15.50;91.00
11511;DHT22;5812;48.864;9.190;2022-07-10T03:50:53;15.70;83.00
11511;DHT22;5812;48.864;9.190;2022-07-10T03:53:19;15.80;73.00
11511;DHT22;5812;48.864;9.190;2022-07-10T03:55:45;15.70;74.40
11511;DHT22;5812;48.864;9.190;2022-07-10T03:58:10;15.80;63.10
11511;DHT22;5812;48.864;9.190;2022-07-10T04:00:36;16.00;56.90
11511;DHT22;5812;48.864;9.190;2022-07-10T04:03:06;16.10;47.60
11511;DHT22;5812;48.864;9.190;2022-07-10T04:05:33;16.20;44.80
11511;DHT22;5812;48.864;9.190;2022-07-10T04:07:59;16.20;45.10
11511;DHT22;5812;48.864;9.190;2022-07-10T04:10:26;16.20;44.00
11511;DHT22;5812;48.864;9.190;2022-07-10T04:12:53;16.30;25.80
11511;DHT22;5812;48.864;9.190;2022-07-10T04:15:19;16.40;21.60
11511;DHT22;5812;48.864;9.190;2022-07-10T04:17:45;16.30;12.40
11511;DHT22;5812;48.864;9.190;2022-07-10T04:20:11;16.40;9.70
11511;DHT22;5812;48.864;9.190;2022-07-10T04:22:37;16.40;1.20
11511;DHT22;5812;48.864;9.190;2022-07-10T04:25:04;16.40;1.00
11511;DHT22;5812;48.864;9.190;2022-07-10T04:27:29;16.40;1.00
11511;DHT22;5812;48.864;9.190;2022-07-10T04:29:55;16.40;1.00
11511;DHT22;5812;48.864;9.190;2022-07-10T04:32:21;16.30;1.00
11511;DHT22;5812;48.864;9.190;2022-07-10T04:34:46;16.30;1.00
11511;DHT22;5812;48.864;9.190;2022-07-10T04:37:12;16.40;1.00
11511;DHT22;5812;48.864;9.190;2022-07-10T04:39:39;16.40;1.00
11511;DHT22;5812;48.864;9.190;2022-07-10T04:42:05;16.40;1.00
11511;DHT22;5812;48.864;9.190;2022-07-10T04:44:31;16.40;1.00
11511;DHT22;5812;48.864;9.190;2022-07-10T04:46:57;16.40;1.00
11511;DHT22;5812;48.864;9.190;2022-07-10T04:49:23;16.40;1.00
11511;DHT22;5812;48.864;9.190;2022-07-10T04:51:49;16.40;1.00
11511;DHT22;5812;48.864;9.190;2022-07-10T04:54:15;16.50;1.00
11511;DHT22;5812;48.864;9.190;2022-07-10T04:56:40;16.70;1.00
11511;DHT22;5812;48.864;9.190;2022-07-10T04:59:06;16.50;1.00
11511;DHT22;5812;48.864;9.190;2022-07-10T05:01:31;16.60;1.00
11511;DHT22;5812;48.864;9.190;2022-07-10T05:03:57;16.60;1.00
11511;DHT22;5812;48.864;9.190;2022-07-10T05:06:23;16.70;1.00
11511;DHT22;5812;48.864;9.190;2022-07-10T05:08:49;16.90;1.00
11511;DHT22;5812;48.864;9.190;2022-07-10T05:11:14;17.10;1.00
11511;DHT22;5812;48.864;9.190;2022-07-10T05:13:40;17.00;1.00
11511;DHT22;5812;48.864;9.190;2022-07-10T05:16:09;16.90;1.00
11511;DHT22;5812;48.864;9.190;2022-07-10T05:18:34;17.00;1.00
11511;DHT22;5812;48.864;9.190;2022-07-10T05:21:00;17.10;1.00
11511;DHT22;5812;48.864;9.190;2022-07-10T05:23:26;17.20;1.00
11511;DHT22;5812;48.864;9.190;2022-07-10T05:25:51;17.10;1.00
11511;DHT22;5812;48.864;9.190;2022-07-10T05:28:17;17.00;1.00
11511;DHT22;5812;48.864;9.190;2022-07-10T05:30:43;16.90;1.00
11511;DHT22;5812;48.864;9.190;2022-07-10T05:33:08;16.70;1.00
11511;DHT22;5812;48.864;9.190;2022-07-10T05:35:34;16.60;1.00
11511;DHT22;5812;48.864;9.190;2022-07-10T05:38:00;16.60;1.00
11511;DHT22;5812;48.864;9.190;2022-07-10T05:40:25;16.70;99.90
11511;DHT22;5812;48.864;9.190;2022-07-10T05:42:51;16.90;1.00
11511;DHT22;5812;48.864;9.190;2022-07-10T05:45:17;17.00;99.90
11511;DHT22;5812;48.864;9.190;2022-07-10T05:47:43;17.10;99.90
11511;DHT22;5812;48.864;9.190;2022-07-10T05:50:10;17.40;99.90
11511;DHT22;5812;48.864;9.190;2022-07-10T05:52:37;17.30;99.90
11511;DHT22;5812;48.864;9.190;2022-07-10T05:55:03;17.30;99.90
11511;DHT22;5812;48.864;9.190;2022-07-10T05:57:30;17.50;99.90
11511;DHT22;5812;48.864;9.190;2022-07-10T05:59:56;17.80;99.90
11511;DHT22;5812;48.864;9.190;2022-07-10T06:02:22;17.80;1.00
11511;DHT22;5812;48.864;9.190;2022-07-10T06:04:48;18.10;99.90
11511;DHT22;5812;48.864;9.190;2022-07-10T06:07:15;18.30;13.00
11511;DHT22;5812;48.864;9.190;2022-07-10T06:09:41;18.50;1.00
11511;DHT22;5812;48.864;9.190;2022-07-10T06:12:07;18.30;1.00
11511;DHT22;5812;48.864;9.190;2022-07-10T06:14:32;18.20;1.00
11511;DHT22;5812;48.864;9.190;2022-07-10T06:16:58;18.40;1.00
11511;DHT22;5812;48.864;9.190;2022-07-10T06:19:24;18.40;99.90
11511;DHT22;5812;48.864;9.190;2022-07-10T06:21:49;18.50;1.00
11511;DHT22;5812;48.864;9.190;2022-07-10T06:24:35;18.40;1.00
11511;DHT22;5812;48.864;9.190;2022-07-10T06:27:00;18.50;99.90
11511;DHT22;5812;48.864;9.190;2022-07-10T06:29:26;18.60;99.90
11511;DHT22;5812;48.864;9.190;2022-07-10T06:31:52;18.80;99.90
11511;DHT22;5812;48.864;9.190;2022-07-10T06:34:17;18.70;99.90
11511;DHT22;5812;48.864;9.190;2022-07-10T06:36:44;18.70;99.90
11511;DHT22;5812;48.864;9.190;2022-07-10T06:39:10;18.90;99.90
11511;DHT22;5812;48.864;9.190;2022-07-10T06:41:36;18.90;99.90
11511;DHT22;5812;48.864;9.190;2022-07-10T06:44:01;19.10;99.90
11511;DHT22;5812;48.864;9.190;2022-07-10T06:46:27;18.90;99.90
11511;DHT22;5812;48.864;9.190;2022-07-10T06:48:53;18.80;99.90
11511;DHT22;5812;48.864;9.190;2022-07-10T06:51:19;18.70;99.90
11511;DHT22;5812;48.864;9.190;2022-07-10T06:53:45;18.90;99.90
11511;DHT22;5812;48.864;9.190;2022-07-10T06:56:10;18.60;99.90
11511;DHT22;5812;48.864;9.190;2022-07-10T06:58:36;18.30;99.90
11511;DHT22;5812;48.864;9.190;2022-07-10T07:01:02;18.20;99.90
11511;DHT22;5812;48.864;9.190;2022-07-10T07:03:27;18.40;99.90
11511;DHT22;5812;48.864;9.190;2022-07-10T07:05:53;18.20;99.90
11511;DHT22;5812;48.864;9.190;2022-07-10T07:08:18;18.50;99.90
11511;DHT22;5812;48.864;9.190;2022-07-10T07:10:44;18.60;99.90
11511;DHT22;5812;48.864;9.190;2022-07-10T07:13:10;18.80;99.90
11511;DHT22;5812;48.864;9.190;2022-07-10T07:15:35;18.70;99.90
11511;DHT22;5812;48.864;9.190;2022-07-10T07:18:05;18.80;99.90
11511;DHT22;5812;48.864;9.190;2022-07-10T07:20:36;18.60;99.90
11511;DHT22;5812;48.864;9.190;2022-07-10T07:23:22;18.40;99.90
11511;DHT22;5812;48.864;9.190;2022-07-10T07:25:48;18.20;99.90
11511;DHT22;5812;48.864;9.190;2022-07-10T07:28:17;18.00;99.90
11511;DHT22;5812;48.864;9.190;2022-07-10T07:30:45;17.70;99.90
11511;DHT22;5812;48.864;9.190;2022-07-10T07:33:11;17.70;99.90
11511;DHT22;5812;48.864;9.190;2022-07-10T07:35:37;17.70;99.90
11511;DHT22;5812;48.864;9.190;2022-07-10T07:38:03;17.50;99.90
11511;DHT22;5812;48.864;9.190;2022-07-10T07:40:29;17.50;99.90
11511;DHT22;5812;48.864;9.190;2022-07-10T07:42:55;17.70;99.90
11511;DHT22;5812;48.864;9.190;2022-07-10T07:45:22;18.00;99.90
11511;DHT22;5812;48.864;9.190;2022-07-10T07:47:49;18.30;99.90
11511;DHT22;5812;48.864;9.190;2022-07-10T07:50:18;18.50;99.90
11511;DHT22;5812;48.864;9.190;2022-07-10T07:52:44;18.30;99.90
11511;DHT22;5812;48.864;9.190;2022-07-10T07:55:11;18.50;99.90
11511;DHT22;5812;48.864;9.190;2022-07-10T07:57:37;18.50;99.90
11511;DHT22;5812;48.864;9.190;2022-07-10T08:00:08;18.70;99.90
11511;DHT22;5812;48.864;9.190;2022-07-10T08:02:34;19.00;99.90
11511;DHT22;5812;48.864;9.190;2022-07-10T08:05:01;19.20;96.30
11511;DHT22;5812;48.864;9.190;2022-07-10T08:07:38;19.50;99.90
11511;DHT22;5812;48.864;9.190;2022-07-10T08:10:06;19.90;99.90
11511;DHT22;5812;48.864;9.190;2022-07-10T08:12:33;20.20;92.20
11511;DHT22;5812;48.864;9.190;2022-07-10T08:14:58;20.30;64.70
11511;DHT22;5812;48.864;9.190;2022-07-10T08:17:25;20.20;63.40
11511;DHT22;5812;48.864;9.190;2022-07-10T08:19:50;19.90;48.50
11511;DHT22;5812;48.864;9.190;2022-07-10T08:22:16;19.70;54.80
11511;DHT22;5812;48.864;9.190;2022-07-10T08:24:42;19.40;43.50
11511;DHT22;5812;48.864;9.190;2022-07-10T08:27:08;19.20;43.30
11511;DHT22;5812;48.864;9.190;2022-07-10T08:29:34;19.40;61.20
11511;DHT22;5812;48.864;9.190;2022-07-10T08:31:59;20.10;47.50
11511;DHT22;5812;48.864;9.190;2022-07-10T08:34:26;20.40;42.10
11511;DHT22;5812;48.864;9.190;2022-07-10T08:36:53;20.80;37.80
11511;DHT22;5812;48.864;9.190;2022-07-10T08:39:18;21.30;28.60
11511;DHT22;5812;48.864;9.190;2022-07-10T08:41:47;21.30;23.40
11511;DHT22;5812;48.864;9.190;2022-07-10T08:44:16;21.30;18.80
11511;DHT22;5812;48.864;9.190;2022-07-10T08:46:43;21.00;20.40
11511;DHT22;5812;48.864;9.190;2022-07-10T08:49:09;21.20;8.70
11511;DHT22;5812;48.864;9.190;2022-07-10T08:54:14;20.90;19.00
11511;DHT22;5812;48.864;9.190;2022-07-10T08:56:41;21.10;14.70
11511;DHT22;5812;48.864;9.190;2022-07-10T08:59:07;21.20;15.70
11511;DHT22;5812;48.864;9.190;2022-07-10T09:01:33;21.40;11.20
11511;DHT22;5812;48.864;9.190;2022-07-10T09:03:59;21.80;14.30
11511;DHT22;5812;48.864;9.190;2022-07-10T09:06:28;22.20;9.90
11511;DHT22;5812;48.864;9.190;2022-07-10T09:08:59;22.70;3.40
11511;DHT22;5812;48.864;9.190;2022-07-10T09:11:25;22.30;5.10
11511;DHT22;5812;48.864;9.190;2022-07-10T09:13:56;21.60;8.80
11511;DHT22;5812;48.864;9.190;2022-07-10T09:16:27;21.40;4.70
11511;DHT22;5812;48.864;9.190;2022-07-10T09:18:53;21.60;6.40
11511;DHT22;5812;48.864;9.190;2022-07-10T09:21:19;22.20;1.00
11511;DHT22;5812;48.864;9.190;2022-07-10T09:23:45;22.10;1.30
11511;DHT22;5812;48.864;9.190;2022-07-10T09:26:11;22.80;1.00
11511;DHT22;5812;48.864;9.190;2022-07-10T09:28:37;22.60;1.00
11511;DHT22;5812;48.864;9.190;2022-07-10T09:31:03;22.50;1.00
11511;DHT22;5812;48.864;9.190;2022-07-10T09:33:30;22.30;1.00
11511;DHT22;5812;48.864;9.190;2022-07-10T09:35:56;21.90;1.00
11511;DHT22;5812;48.864;9.190;2022-07-10T09:41:28;22.00;3.90
11511;DHT22;5812;48.864;9.190;2022-07-10T09:46:30;23.00;1.00
11511;DHT22;5812;48.864;9.190;2022-07-10T09:49:04;23.00;1.00
11511;DHT22;5812;48.864;9.190;2022-07-10T09:51:32;23.00;1.00
11511;DHT22;5812;48.864;9.190;2022-07-10T09:54:01;22.50;1.00
11511;DHT22;5812;48.864;9.190;2022-07-10T09:56:39;22.00;1.00
11511;DHT22;5812;48.864;9.190;2022-07-10T09:59:16;22.30;1.00
11511;DHT22;5812;48.864;9.190;2022-07-10T10:01:49;22.40;1.00
11511;DHT22;5812;48.864;9.190;2022-07-10T10:04:17;22.70;1.00
11511;DHT22;5812;48.864;9.190;2022-07-10T10:06:46;23.00;1.00
11511;DHT22;5812;48.864;9.190;2022-07-10T10:09:29;23.80;1.00
11511;DHT22;5812;48.864;9.190;2022-07-10T10:14:40;24.00;1.00
11511;DHT22;5812;48.864;9.190;2022-07-10T10:17:07;24.20;1.00
11511;DHT22;5812;48.864;9.190;2022-07-10T10:19:33;23.90;1.00
11511;DHT22;5812;48.864;9.190;2022-07-10T10:22:18;23.60;1.00
11511;DHT22;5812;48.864;9.190;2022-07-10T10:24:44;23.40;1.00
11511;DHT22;5812;48.864;9.190;2022-07-10T10:27:11;23.20;1.00
11511;DHT22;5812;48.864;9.190;2022-07-10T10:29:37;22.90;1.00
11511;DHT22;5812;48.864;9.190;2022-07-10T10:32:05;22.50;1.00
11511;DHT22;5812;48.864;9.190;2022-07-10T10:34:46;22.30;1.00
11511;DHT22;5812;48.864;9.190;2022-07-10T10:37:39;22.80;1.00
11511;DHT22;5812;48.864;9.190;2022-07-10T10:40:11;24.10;1.00
11511;DHT22;5812;48.864;9.190;2022-07-10T10:42:55;25.00;1.00
11511;DHT22;5812;48.864;9.190;2022-07-10T10:48:01;24.20;1.00
11511;DHT22;5812;48.864;9.190;2022-07-10T10:53:04;23.60;1.00
11511;DHT22;5812;48.864;9.190;2022-07-10T10:55:29;23.60;1.00
11511;DHT22;5812;48.864;9.190;2022-07-10T10:58:15;23.00;1.00
11511;DHT22;5812;48.864;9.190;2022-07-10T11:00:41;23.60;1.00
11511;DHT22;5812;48.864;9.190;2022-07-10T11:03:23;24.20;1.00
11511;DHT22;5812;48.864;9.190;2022-07-10T11:05:51;24.70;1.00
11511;DHT22;5812;48.864;9.190;2022-07-10T11:13:57;26.90;1.00
11511;DHT22;5812;48.864;9.190;2022-07-10T11:16:24;26.80;1.00
11511;DHT22;5812;48.864;9.190;2022-07-10T11:18:52;26.40;1.00
11511;DHT22;5812;48.864;9.190;2022-07-10T11:21:23;25.00;1.00
11511;DHT22;5812;48.864;9.190;2022-07-10T11:29:08;23.10;1.00
11511;DHT22;5812;48.864;9.190;2022-07-10T11:31:34;24.00;1.00
11511;DHT22;5812;48.864;9.190;2022-07-10T11:34:06;25.60;1.00
11511;DHT22;5812;48.864;9.190;2022-07-10T11:36:33;27.10;1.00
11511;DHT22;5812;48.864;9.190;2022-07-10T11:39:00;27.20;1.00
11511;DHT22;5812;48.864;9.190;2022-07-10T11:41:26;26.60;1.00
11511;DHT22;5812;48.864;9.190;2022-07-10T11:43:53;25.50;1.00
11511;DHT22;5812;48.864;9.190;2022-07-10T11:46:21;25.10;1.00
11511;DHT22;5812;48.864;9.190;2022-07-10T11:48:48;26.00;1.00
11511;DHT22;5812;48.864;9.190;2022-07-10T11:51:19;27.20;1.00
11511;DHT22;5812;48.864;9.190;2022-07-10T11:53:59;28.90;1.00
11511;DHT22;5812;48.864;9.190;2022-07-10T11:56:27;30.90;1.00
11511;DHT22;5812;48.864;9.190;2022-07-10T11:58:55;32.50;1.00
11511;DHT22;5812;48.864;9.190;2022-07-10T12:01:20;31.50;1.00
11511;DHT22;5812;48.864;9.190;2022-07-10T12:04:03;29.30;1.00
11511;DHT22;5812;48.864;9.190;2022-07-10T12:06:33;27.40;1.00
11511;DHT22;5812;48.864;9.190;2022-07-10T12:09:10;27.50;1.00
11511;DHT22;5812;48.864;9.190;2022-07-10T12:11:37;28.60;1.00
11511;DHT22;5812;48.864;9.190;2022-07-10T12:14:19;27.70;1.00
11511;DHT22;5812;48.864;9.190;2022-07-10T12:16:50;29.00;1.00
11511;DHT22;5812;48.864;9.190;2022-07-10T12:19:23;28.60;1.00
11511;DHT22;5812;48.864;9.190;2022-07-10T12:21:49;26.70;1.00
11511;DHT22;5812;48.864;9.190;2022-07-10T12:24:19;26.00;1.00
11511;DHT22;5812;48.864;9.190;2022-07-10T12:26:46;27.70;1.00
11511;DHT22;5812;48.864;9.190;2022-07-10T12:29:20;30.00;1.00
11511;DHT22;5812;48.864;9.190;2022-07-10T12:31:47;30.80;1.00
11511;DHT22;5812;48.864;9.190;2022-07-10T12:34:15;29.70;1.00
11511;DHT22;5812;48.864;9.190;2022-07-10T12:36:52;31.50;1.00
11511;DHT22;5812;48.864;9.190;2022-07-10T12:39:20;31.40;1.00
11511;DHT22;5812;48.864;9.190;2022-07-10T12:42:01;30.00;1.00
11511;DHT22;5812;48.864;9.190;2022-07-10T12:44:42;29.70;1.00
11511;DHT22;5812;48.864;9.190;2022-07-10T12:47:11;30.00;1.00
11511;DHT22;5812;48.864;9.190;2022-07-10T12:50:02;30.70;1.00
11511;DHT22;5812;48.864;9.190;2022-07-10T12:52:29;30.80;1.00
11511;DHT22;5812;48.864;9.190;2022-07-10T12:57:31;32.30;1.00
11511;DHT22;5812;48.864;9.190;2022-07-10T13:00:03;33.70;1.00
11511;DHT22;5812;48.864;9.190;2022-07-10T13:02:30;35.30;1.00
11511;DHT22;5812;48.864;9.190;2022-07-10T13:04:57;35.70;1.00
11511;DHT22;5812;48.864;9.190;2022-07-10T13:07:33;35.80;1.00
11511;DHT22;5812;48.864;9.190;2022-07-10T13:10:00;38.40;1.00
11511;DHT22;5812;48.864;9.190;2022-07-10T13:12:26;36.90;1.00
11511;DHT22;5812;48.864;9.190;2022-07-10T13:14:52;34.10;1.00
11511;DHT22;5812;48.864;9.190;2022-07-10T13:17:17;34.10;1.00
11511;DHT22;5812;48.864;9.190;2022-07-10T13:19:43;33.80;1.00
11511;DHT22;5812;48.864;9.190;2022-07-10T13:22:08;35.20;1.00
11511;DHT22;5812;48.864;9.190;2022-07-10T13:24:34;36.60;1.00
11511;DHT22;5812;48.864;9.190;2022-07-10T13:27:00;37.00;1.00
11511;DHT22;5812;48.864;9.190;2022-07-10T13:29:25;34.70;1.00
11511;DHT22;5812;48.864;9.190;2022-07-10T13:31:51;34.10;1.00
11511;DHT22;5812;48.864;9.190;2022-07-10T13:34:17;35.00;1.00
11511;DHT22;5812;48.864;9.190;2022-07-10T13:36:42;35.70;1.00
11511;DHT22;5812;48.864;9.190;2022-07-10T13:39:08;37.70;1.00
11511;DHT22;5812;48.864;9.190;2022-07-10T13:41:34;36.90;1.00
11511;DHT22;5812;48.864;9.190;2022-07-10T13:43:59;36.80;1.00
11511;DHT22;5812;48.864;9.190;2022-07-10T13:46:27;35.00;1.00
11511;DHT22;5812;48.864;9.190;2022-07-10T13:48:52;31.60;1.00
11511;DHT22;5812;48.864;9.190;2022-07-10T13:51:18;28.90;1.00
11511;DHT22;5812;48.864;9.190;2022-07-10T13:53:44;28.70;1.00
11511;DHT22;5812;48.864;9.190;2022-07-10T13:56:09;30.80;1.00
11511;DHT22;5812;48.864;9.190;2022-07-10T13:58:35;31.70;1.00
11511;DHT22;5812;48.864;9.190;2022-07-10T14:01:03;34.20;1.00
11511;DHT22;5812;48.864;9.190;2022-07-10T14:03:30;37.00;1.00
11511;DHT22;5812;48.864;9.190;2022-07-10T14:05:56;39.00;1.00
11511;DHT22;5812;48.864;9.190;2022-07-10T14:08:22;39.10;1.00
11511;DHT22;5812;48.864;9.190;2022-07-10T14:10:47;37.30;1.00
11511;DHT22;5812;48.864;9.190;2022-07-10T14:13:13;34.40;1.00
11511;DHT22;5812;48.864;9.190;2022-07-10T14:15:38;32.20;1.00
11511;DHT22;5812;48.864;9.190;2022-07-10T14:18:05;30.20;1.00
11511;DHT22;5812;48.864;9.190;2022-07-10T14:20:31;29.00;1.00
11511;DHT22;5812;48.864;9.190;2022-07-10T14:23:16;29.80;1.00
11511;DHT22;5812;48.864;9.190;2022-07-10T14:25:41;31.90;1.00
11511;DHT22;5812;48.864;9.190;2022-07-10T14:28:07;32.20;1.00
11511;DHT22;5812;48.864;9.190;2022-07-10T14:30:33;33.20;1.00
11511;DHT22;5812;48.864;9.190;2022-07-10T14:32:59;34.70;1.00
11511;DHT22;5812;48.864;9.190;2022-07-10T14:35:24;35.70;1.00
11511;DHT22;5812;48.864;9.190;2022-07-10T14:37:50;36.50;1.00
11511;DHT22;5812;48.864;9.190;2022-07-10T14:40:15;34.40;1.00
11511;DHT22;5812;48.864;9.190;2022-07-10T14:42:41;33.30;1.00
11511;DHT22;5812;48.864;9.190;2022-07-10T14:45:07;31.60;1.00
11511;DHT22;5812;48.864;9.190;2022-07-10T14:47:33;31.70;1.00
11511;DHT22;5812;48.864;9.190;2022-07-10T14:49:59;30.10;1.00
11511;DHT22;5812;48.864;9.190;2022-07-10T14:52:25;30.10;1.00
11511;DHT22;5812;48.864;9.190;2022-07-10T14:54:53;28.60;1.00
11511;DHT22;5812;48.864;9.190;2022-07-10T14:57:19;28.00;1.00
11511;DHT22;5812;48.864;9.190;2022-07-10T14:59:44;27.20;1.00
11511;DHT22;5812;48.864;9.190;2022-07-10T15:02:10;27.00;1.00
11511;DHT22;5812;48.864;9.190;2022-07-10T15:04:35;26.20;1.00
11511;DHT22;5812;48.864;9.190;2022-07-10T15:07:01;26.80;1.00
11511;DHT22;5812;48.864;9.190;2022-07-10T15:09:27;26.20;1.00
11511;DHT22;5812;48.864;9.190;2022-07-10T15:11:52;25.70;1.00
11511;DHT22;5812;48.864;9.190;2022-07-10T15:14:19;25.90;1.00
11511;DHT22;5812;48.864;9.190;2022-07-10T15:16:45;25.80;1.00
11511;DHT22;5812;48.864;9.190;2022-07-10T15:19:10;26.00;1.00
11511;DHT22;5812;48.864;9.190;2022-07-10T15:21:36;26.30;1.00
11511;DHT22;5812;48.864;9.190;2022-07-10T15:24:02;27.70;1.00
11511;DHT22;5812;48.864;9.190;2022-07-10T15:26:28;28.70;1.00
11511;DHT22;5812;48.864;9.190;2022-07-10T15:28:53;29.00;1.00
11511;DHT22;5812;48.864;9.190;2022-07-10T15:31:20;27.40;1.00
11511;DHT22;5812;48.864;9.190;2022-07-10T15:33:46;26.60;1.00
11511;DHT22;5812;48.864;9.190;2022-07-10T15:36:12;25.60;1.00
11511;DHT22;5812;48.864;9.190;2022-07-10T15:38:38;25.00;1.00
11511;DHT22;5812;48.864;9.190;2022-07-10T15:41:04;24.50;1.00
11511;DHT22;5812;48.864;9.190;2022-07-10T15:43:30;24.40;1.00
11511;DHT22;5812;48.864;9.190;2022-07-10T15:45:56;24.50;1.00
11511;DHT22;5812;48.864;9.190;2022-07-10T15:48:21;25.30;1.00
11511;DHT22;5812;48.864;9.190;2022-07-10T15:50:47;25.00;1.00
11511;DHT22;5812;48.864;9.190;2022-07-10T15:53:13;25.00;1.00
11511;DHT22;5812;48.864;9.190;2022-07-10T15:55:38;26.10;1.00
11511;DHT22;5812;48.864;9.190;2022-07-10T15:58:04;28.40;1.00
11511;DHT22;5812;48.864;9.190;2022-07-10T16:00:30;31.20;1.00
11511;DHT22;5812;48.864;9.190;2022-07-10T16:02:55;32.90;1.00
11511;DHT22;5812;48.864;9.190;2022-07-10T16:05:26;34.20;1.00
11511;DHT22;5812;48.864;9.190;2022-07-10T16:07:51;34.90;1.00
11511;DHT22;5812;48.864;9.190;2022-07-10T16:10:18;33.20;1.00
11511;DHT22;5812;48.864;9.190;2022-07-10T16:12:43;32.20;1.00
11511;DHT22;5812;48.864;9.190;2022-07-10T16:15:09;31.80;1.00
11511;DHT22;5812;48.864;9.190;2022-07-10T16:17:35;32.40;1.00
11511;DHT22;5812;48.864;9.190;2022-07-10T16:20:00;33.10;1.00
11511;DHT22;5812;48.864;9.190;2022-07-10T16:22:26;32.80;1.00
11511;DHT22;5812;48.864;9.190;2022-07-10T16:24:52;33.70;1.00